sensor_id;sensor_type;location;lat;lon;timestamp;temperature;humidity
3298;DHT22;1661;53.572;10.174;2023-06-22T00:00:46;19.70;75.60
3298;DHT22;1661;53.572;10.174;2023-06-22T00:03:13;19.60;76.10
3298;DHT22;1661;53.572;10.174;2023-06-22T00:05:41;19.50;76.10
3298;DHT22;1661;53.572;10.174;2023-06-22T00:08:08;19.50;76.20
3298;DHT22;1661;53.572;10.174;2023-06-22T00:10:34;19.40;75.10
3298;DHT22;1661;53.572;10.174;2023-06-22T00:13:01;19.40;74.10
3298;DHT22;1661;53.572;10.174;2023-06-22T00:15:28;19.50;74.70
3298;DHT22;1661;53.572;10.174;2023-06-22T00:17:55;19.50;75.60
3298;DHT22;1661;53.572;10.174;2023-06-22T00:20:22;19.50;75.70
3298;DHT22;1661;53.572;10.174;2023-06-22T00:22:54;19.50;76.10
3298;DHT22;1661;53.572;10.174;2023-06-22T00:25:22;19.40;76.20
3298;DHT22;1661;53.572;10.174;2023-06-22T00:27:49;19.40;75.90
3298;DHT22;1661;53.572;10.174;2023-06-22T00:30:16;19.40;76.00
3298;DHT22;1661;53.572;10.174;2023-06-22T00:32:44;19.40;76.20
3298;DHT22;1661;53.572;10.174;2023-06-22T00:35:12;19.40;76.60
3298;DHT22;1661;53.572;10.174;2023-06-22T00:37:39;19.40;76.80
3298;DHT22;1661;53.572;10.174;2023-06-22T00:40:10;19.30;77.20
3298;DHT22;1661;53.572;10.174;2023-06-22T00:42:39;19.30;77.30
3298;DHT22;1661;53.572;10.174;2023-06-22T00:45:06;19.20;78.10
3298;DHT22;1661;53.572;10.174;2023-06-22T00:47:34;19.10;78.50
3298;DHT22;1661;53.572;10.174;2023-06-22T00:50:01;19.10;78.10
3298;DHT22;1661;53.572;10.174;2023-06-22T00:52:29;19.00;78.40
3298;DHT22;1661;53.572;10.174;2023-06-22T00:54:56;19.00;77.50
3298;DHT22;1661;53.572;10.174;2023-06-22T00:57:25;19.00;76.80
3298;DHT22;1661;53.572;10.174;2023-06-22T00:59:53;19.00;76.10
3298;DHT22;1661;53.572;10.174;2023-06-22T01:02:21;19.10;76.40
3298;DHT22;1661;53.572;10.174;2023-06-22T01:04:47;19.10;75.70
3298;DHT22;1661;53.572;10.174;2023-06-22T01:07:19;19.20;75.40
3298;DHT22;1661;53.572;10.174;2023-06-22T01:09:54;19.20;75.70
3298;DHT22;1661;53.572;10.174;2023-06-22T01:12:26;19.30;77.30
3298;DHT22;1661;53.572;10.174;2023-06-22T01:15:02;19.30;78.10
3298;DHT22;1661;53.572;10.174;2023-06-22T01:17:29;19.20;77.60
3298;DHT22;1661;53.572;10.174;2023-06-22T01:19:58;19.20;77.40
3298;DHT22;1661;53.572;10.174;2023-06-22T01:22:30;19.20;78.40
3298;DHT22;1661;53.572;10.174;2023-06-22T01:25:03;19.10;78.40
3298;DHT22;1661;53.572;10.174;2023-06-22T01:27:44;19.10;78.80
3298;DHT22;1661;53.572;10.174;2023-06-22T01:30:17;19.10;78.60
3298;DHT22;1661;53.572;10.174;2023-06-22T01:32:45;19.00;79.40
3298;DHT22;1661;53.572;10.174;2023-06-22T01:35:12;19.00;79.40
3298;DHT22;1661;53.572;10.174;2023-06-22T01:37:40;18.90;78.90
3298;DHT22;1661;53.572;10.174;2023-06-22T01:40:08;18.90;78.30
3298;DHT22;1661;53.572;10.174;2023-06-22T01:42:37;18.90;79.00
3298;DHT22;1661;53.572;10.174;2023-06-22T01:45:05;18.90;79.30
3298;DHT22;1661;53.572;10.174;2023-06-22T01:47:34;18.80;78.90
3298;DHT22;1661;53.572;10.174;2023-06-22T01:50:01;18.80;78.70
3298;DHT22;1661;53.572;10.174;2023-06-22T01:52:28;18.80;78.60
3298;DHT22;1661;53.572;10.174;2023-06-22T01:54:55;18.80;79.00
3298;DHT22;1661;53.572;10.174;2023-06-22T01:57:23;18.80;79.60
3298;DHT22;1661;53.572;10.174;2023-06-22T01:59:58;18.80;79.80
3298;DHT22;1661;53.572;10.174;2023-06-22T02:02:28;18.70;80.40
3298;DHT22;1661;53.572;10.174;2023-06-22T02:05:00;18.70;80.10
3298;DHT22;1661;53.572;10.174;2023-06-22T02:07:30;18.70;79.40
3298;DHT22;1661;53.572;10.174;2023-06-22T02:09:59;18.60;79.20
3298;DHT22;1661;53.572;10.174;2023-06-22T02:12:27;18.60;78.20
3298;DHT22;1661;53.572;10.174;2023-06-22T02:14:55;18.60;77.80
3298;DHT22;1661;53.572;10.174;2023-06-22T02:17:22;18.70;77.30
3298;DHT22;1661;53.572;10.174;2023-06-22T02:19:50;18.70;77.30
3298;DHT22;1661;53.572;10.174;2023-06-22T02:22:19;18.70;78.70
3298;DHT22;1661;53.572;10.174;2023-06-22T02:24:45;18.70;79.80
3298;DHT22;1661;53.572;10.174;2023-06-22T02:27:12;18.60;79.60
3298;DHT22;1661;53.572;10.174;2023-06-22T02:29:39;18.60;78.90
3298;DHT22;1661;53.572;10.174;2023-06-22T02:32:06;18.60;78.70
3298;DHT22;1661;53.572;10.174;2023-06-22T02:34:34;18.60;78.40
3298;DHT22;1661;53.572;10.174;2023-06-22T02:37:02;18.60;78.10
3298;DHT22;1661;53.572;10.174;2023-06-22T02:39:30;18.60;78.00
3298;DHT22;1661;53.572;10.174;2023-06-22T02:41:57;18.60;79.40
3298;DHT22;1661;53.572;10.174;2023-06-22T02:44:24;18.50;79.30
3298;DHT22;1661;53.572;10.174;2023-06-22T02:46:50;18.50;78.70
3298;DHT22;1661;53.572;10.174;2023-06-22T02:49:17;18.50;79.70
3298;DHT22;1661;53.572;10.174;2023-06-22T02:51:46;18.40;79.10
3298;DHT22;1661;53.572;10.174;2023-06-22T02:54:13;18.40;78.00
3298;DHT22;1661;53.572;10.174;2023-06-22T02:56:41;18.40;78.30
3298;DHT22;1661;53.572;10.174;2023-06-22T02:59:09;18.40;79.30
3298;DHT22;1661;53.572;10.174;2023-06-22T03:01:36;18.40;78.90
3298;DHT22;1661;53.572;10.174;2023-06-22T03:04:05;18.30;77.90
3298;DHT22;1661;53.572;10.174;2023-06-22T03:06:32;18.30;78.30
3298;DHT22;1661;53.572;10.174;2023-06-22T03:09:00;18.30;78.50
3298;DHT22;1661;53.572;10.174;2023-06-22T03:11:29;18.30;78.50
3298;DHT22;1661;53.572;10.174;2023-06-22T03:13:57;18.30;77.90
3298;DHT22;1661;53.572;10.174;2023-06-22T03:16:24;18.30;77.60
3298;DHT22;1661;53.572;10.174;2023-06-22T03:18:51;18.30;77.60
3298;DHT22;1661;53.572;10.174;2023-06-22T03:21:18;18.30;77.60
3298;DHT22;1661;53.572;10.174;2023-06-22T03:23:45;18.30;78.30
3298;DHT22;1661;53.572;10.174;2023-06-22T03:26:12;18.30;78.50
3298;DHT22;1661;53.572;10.174;2023-06-22T03:28:39;18.30;78.70
3298;DHT22;1661;53.572;10.174;2023-06-22T03:31:07;18.30;78.70
3298;DHT22;1661;53.572;10.174;2023-06-22T03:33:34;18.30;79.60
3298;DHT22;1661;53.572;10.174;2023-06-22T03:36:01;18.30;79.60
3298;DHT22;1661;53.572;10.174;2023-06-22T03:38:28;18.20;80.20
3298;DHT22;1661;53.572;10.174;2023-06-22T03:40:55;18.10;79.70
3298;DHT22;1661;53.572;10.174;2023-06-22T03:43:23;18.10;80.00
3298;DHT22;1661;53.572;10.174;2023-06-22T03:45:50;18.10;80.40
3298;DHT22;1661;53.572;10.174;2023-06-22T03:48:18;18.10;79.70
3298;DHT22;1661;53.572;10.174;2023-06-22T03:50:44;18.10;79.80
3298;DHT22;1661;53.572;10.174;2023-06-22T03:53:11;18.10;80.60
3298;DHT22;1661;53.572;10.174;2023-06-22T03:55:45;18.10;81.10
3298;DHT22;1661;53.572;10.174;2023-06-22T03:58:14;18.10;81.30
3298;DHT22;1661;53.572;10.174;2023-06-22T04:00:40;18.10;81.50
3298;DHT22;1661;53.572;10.174;2023-06-22T04:03:07;18.10;81.90
3298;DHT22;1661;53.572;10.174;2023-06-22T04:05:35;18.10;82.20
3298;DHT22;1661;53.572;10.174;2023-06-22T04:08:02;18.10;81.90
3298;DHT22;1661;53.572;10.174;2023-06-22T04:10:29;18.10;81.60
3298;DHT22;1661;53.572;10.174;2023-06-22T04:12:56;18.10;80.90
3298;DHT22;1661;53.572;10.174;2023-06-22T04:15:22;18.20;79.70
3298;DHT22;1661;53.572;10.174;2023-06-22T04:17:49;18.30;78.90
3298;DHT22;1661;53.572;10.174;2023-06-22T04:20:16;18.30;78.10
3298;DHT22;1661;53.572;10.174;2023-06-22T04:22:44;18.40;77.70
3298;DHT22;1661;53.572;10.174;2023-06-22T04:25:11;18.50;77.50
3298;DHT22;1661;53.572;10.174;2023-06-22T04:27:38;18.60;77.00
3298;DHT22;1661;53.572;10.174;2023-06-22T04:30:07;18.70;76.20
3298;DHT22;1661;53.572;10.174;2023-06-22T04:32:34;18.70;76.60
3298;DHT22;1661;53.572;10.174;2023-06-22T04:35:02;18.80;76.40
3298;DHT22;1661;53.572;10.174;2023-06-22T04:37:30;18.90;76.10
3298;DHT22;1661;53.572;10.174;2023-06-22T04:39:58;19.00;76.70
3298;DHT22;1661;53.572;10.174;2023-06-22T04:42:26;19.10;75.30
3298;DHT22;1661;53.572;10.174;2023-06-22T04:44:53;19.10;75.10
3298;DHT22;1661;53.572;10.174;2023-06-22T04:47:20;19.20;74.70
3298;DHT22;1661;53.572;10.174;2023-06-22T04:49:47;19.30;75.00
3298;DHT22;1661;53.572;10.174;2023-06-22T04:52:14;19.30;74.00
3298;DHT22;1661;53.572;10.174;2023-06-22T04:54:43;19.40;74.70
3298;DHT22;1661;53.572;10.174;2023-06-22T04:57:14;19.50;75.00
3298;DHT22;1661;53.572;10.174;2023-06-22T04:59:41;19.60;74.60
3298;DHT22;1661;53.572;10.174;2023-06-22T05:02:09;19.70;75.80
3298;DHT22;1661;53.572;10.174;2023-06-22T05:04:36;19.70;76.50
3298;DHT22;1661;53.572;10.174;2023-06-22T05:07:04;19.80;76.70
3298;DHT22;1661;53.572;10.174;2023-06-22T05:09:31;19.90;74.90
3298;DHT22;1661;53.572;10.174;2023-06-22T05:11:59;19.90;74.70
3298;DHT22;1661;53.572;10.174;2023-06-22T05:14:29;20.00;75.50
3298;DHT22;1661;53.572;10.174;2023-06-22T05:16:56;20.10;76.80
3298;DHT22;1661;53.572;10.174;2023-06-22T05:19:24;20.10;77.60
3298;DHT22;1661;53.572;10.174;2023-06-22T05:21:56;20.20;76.60
3298;DHT22;1661;53.572;10.174;2023-06-22T05:24:23;20.20;76.70
3298;DHT22;1661;53.572;10.174;2023-06-22T05:26:50;20.30;75.40
3298;DHT22;1661;53.572;10.174;2023-06-22T05:29:17;20.40;75.10
3298;DHT22;1661;53.572;10.174;2023-06-22T05:31:45;20.40;74.90
3298;DHT22;1661;53.572;10.174;2023-06-22T05:34:12;20.50;74.00
3298;DHT22;1661;53.572;10.174;2023-06-22T05:36:38;20.50;74.60
3298;DHT22;1661;53.572;10.174;2023-06-22T05:39:11;20.60;74.30
3298;DHT22;1661;53.572;10.174;2023-06-22T05:41:39;20.60;74.10
3298;DHT22;1661;53.572;10.174;2023-06-22T05:44:05;20.70;74.20
3298;DHT22;1661;53.572;10.174;2023-06-22T05:46:32;20.80;73.80
3298;DHT22;1661;53.572;10.174;2023-06-22T05:49:00;20.90;73.30
3298;DHT22;1661;53.572;10.174;2023-06-22T05:51:27;20.90;72.90
3298;DHT22;1661;53.572;10.174;2023-06-22T05:53:54;21.00;72.90
3298;DHT22;1661;53.572;10.174;2023-06-22T05:56:20;21.10;72.00
3298;DHT22;1661;53.572;10.174;2023-06-22T05:58:47;21.20;71.20
3298;DHT22;1661;53.572;10.174;2023-06-22T06:01:14;21.20;70.90
3298;DHT22;1661;53.572;10.174;2023-06-22T06:03:42;21.40;71.00
3298;DHT22;1661;53.572;10.174;2023-06-22T06:06:11;21.50;70.80
3298;DHT22;1661;53.572;10.174;2023-06-22T06:08:38;21.60;70.30
3298;DHT22;1661;53.572;10.174;2023-06-22T06:11:05;21.80;70.20
3298;DHT22;1661;53.572;10.174;2023-06-22T06:13:31;21.90;69.80
3298;DHT22;1661;53.572;10.174;2023-06-22T06:15:58;22.10;70.10
3298;DHT22;1661;53.572;10.174;2023-06-22T06:18:25;22.20;69.80
3298;DHT22;1661;53.572;10.174;2023-06-22T06:20:52;22.40;68.60
3298;DHT22;1661;53.572;10.174;2023-06-22T06:23:20;22.50;68.40
3298;DHT22;1661;53.572;10.174;2023-06-22T06:25:47;22.60;68.50
3298;DHT22;1661;53.572;10.174;2023-06-22T06:28:13;22.80;67.70
3298;DHT22;1661;53.572;10.174;2023-06-22T06:30:40;22.90;67.50
3298;DHT22;1661;53.572;10.174;2023-06-22T06:33:07;23.10;67.60
3298;DHT22;1661;53.572;10.174;2023-06-22T06:35:34;23.20;65.90
3298;DHT22;1661;53.572;10.174;2023-06-22T06:38:01;23.40;65.50
3298;DHT22;1661;53.572;10.174;2023-06-22T06:40:30;23.40;64.80
3298;DHT22;1661;53.572;10.174;2023-06-22T06:42:56;23.50;64.90
3298;DHT22;1661;53.572;10.174;2023-06-22T06:45:24;23.60;64.80
3298;DHT22;1661;53.572;10.174;2023-06-22T06:47:53;23.70;65.90
3298;DHT22;1661;53.572;10.174;2023-06-22T06:50:20;24.00;65.90
3298;DHT22;1661;53.572;10.174;2023-06-22T06:52:47;24.10;63.50
3298;DHT22;1661;53.572;10.174;2023-06-22T06:55:15;24.20;63.90
3298;DHT22;1661;53.572;10.174;2023-06-22T06:57:43;24.30;62.80
3298;DHT22;1661;53.572;10.174;2023-06-22T07:00:15;24.40;62.50
3298;DHT22;1661;53.572;10.174;2023-06-22T07:02:43;24.50;63.20
3298;DHT22;1661;53.572;10.174;2023-06-22T07:05:11;24.70;63.60
3298;DHT22;1661;53.572;10.174;2023-06-22T07:07:38;24.90;61.50
3298;DHT22;1661;53.572;10.174;2023-06-22T07:10:08;25.00;61.60
3298;DHT22;1661;53.572;10.174;2023-06-22T07:12:35;25.10;60.90
3298;DHT22;1661;53.572;10.174;2023-06-22T07:15:05;25.10;60.40
3298;DHT22;1661;53.572;10.174;2023-06-22T07:17:33;25.20;61.00
3298;DHT22;1661;53.572;10.174;2023-06-22T07:20:00;25.20;61.70
3298;DHT22;1661;53.572;10.174;2023-06-22T07:22:27;25.30;61.60
3298;DHT22;1661;53.572;10.174;2023-06-22T07:24:54;25.30;61.00
3298;DHT22;1661;53.572;10.174;2023-06-22T07:27:21;25.40;61.10
3298;DHT22;1661;53.572;10.174;2023-06-22T07:29:48;25.40;60.00
3298;DHT22;1661;53.572;10.174;2023-06-22T07:32:16;25.50;60.60
3298;DHT22;1661;53.572;10.174;2023-06-22T07:34:43;25.50;59.60
3298;DHT22;1661;53.572;10.174;2023-06-22T07:37:10;25.60;60.10
3298;DHT22;1661;53.572;10.174;2023-06-22T07:39:36;25.60;59.90
3298;DHT22;1661;53.572;10.174;2023-06-22T07:42:04;25.70;59.90
3298;DHT22;1661;53.572;10.174;2023-06-22T07:44:31;25.80;59.60
3298;DHT22;1661;53.572;10.174;2023-06-22T07:46:57;25.80;59.00
3298;DHT22;1661;53.572;10.174;2023-06-22T07:49:25;25.90;58.60
3298;DHT22;1661;53.572;10.174;2023-06-22T07:51:52;26.00;58.20
3298;DHT22;1661;53.572;10.174;2023-06-22T07:54:19;26.10;58.80
3298;DHT22;1661;53.572;10.174;2023-06-22T07:56:46;26.30;59.20
3298;DHT22;1661;53.572;10.174;2023-06-22T07:59:13;26.50;58.10
3298;DHT22;1661;53.572;10.174;2023-06-22T08:01:40;26.70;57.60
3298;DHT22;1661;53.572;10.174;2023-06-22T08:04:06;26.90;57.70
3298;DHT22;1661;53.572;10.174;2023-06-22T08:06:35;27.10;57.90
3298;DHT22;1661;53.572;10.174;2023-06-22T08:09:02;27.20;57.00
3298;DHT22;1661;53.572;10.174;2023-06-22T08:11:29;27.40;56.80
3298;DHT22;1661;53.572;10.174;2023-06-22T08:13:56;27.50;57.10
3298;DHT22;1661;53.572;10.174;2023-06-22T08:16:24;27.70;56.00
3298;DHT22;1661;53.572;10.174;2023-06-22T08:18:50;27.80;55.60
3298;DHT22;1661;53.572;10.174;2023-06-22T08:21:17;27.90;56.00
3298;DHT22;1661;53.572;10.174;2023-06-22T08:23:45;28.00;55.30
3298;DHT22;1661;53.572;10.174;2023-06-22T08:26:12;28.20;54.80
3298;DHT22;1661;53.572;10.174;2023-06-22T08:28:39;28.40;53.40
3298;DHT22;1661;53.572;10.174;2023-06-22T08:31:05;28.60;54.70
3298;DHT22;1661;53.572;10.174;2023-06-22T08:33:32;28.70;54.30
3298;DHT22;1661;53.572;10.174;2023-06-22T08:35:59;28.80;52.40
3298;DHT22;1661;53.572;10.174;2023-06-22T08:38:26;29.00;52.20
3298;DHT22;1661;53.572;10.174;2023-06-22T08:40:54;29.10;50.60
3298;DHT22;1661;53.572;10.174;2023-06-22T08:43:21;29.30;50.90
3298;DHT22;1661;53.572;10.174;2023-06-22T08:45:48;29.40;49.10
3298;DHT22;1661;53.572;10.174;2023-06-22T08:48:14;29.60;49.90
3298;DHT22;1661;53.572;10.174;2023-06-22T08:50:41;29.80;49.70
3298;DHT22;1661;53.572;10.174;2023-06-22T08:53:08;29.90;49.30
3298;DHT22;1661;53.572;10.174;2023-06-22T08:55:35;30.10;49.70
3298;DHT22;1661;53.572;10.174;2023-06-22T08:58:03;30.30;49.30
3298;DHT22;1661;53.572;10.174;2023-06-22T09:00:30;30.50;49.10
3298;DHT22;1661;53.572;10.174;2023-06-22T09:03:00;30.70;47.90
3298;DHT22;1661;53.572;10.174;2023-06-22T09:05:27;30.70;46.70
3298;DHT22;1661;53.572;10.174;2023-06-22T09:07:54;30.70;48.70
3298;DHT22;1661;53.572;10.174;2023-06-22T09:10:21;30.90;48.30
3298;DHT22;1661;53.572;10.174;2023-06-22T09:12:48;31.00;48.60
3298;DHT22;1661;53.572;10.174;2023-06-22T09:15:16;31.20;48.20
3298;DHT22;1661;53.572;10.174;2023-06-22T09:17:43;31.40;46.90
3298;DHT22;1661;53.572;10.174;2023-06-22T09:20:12;31.50;45.40
3298;DHT22;1661;53.572;10.174;2023-06-22T09:22:38;31.60;44.50
3298;DHT22;1661;53.572;10.174;2023-06-22T09:25:06;31.60;44.70
3298;DHT22;1661;53.572;10.174;2023-06-22T09:27:33;31.70;45.30
3298;DHT22;1661;53.572;10.174;2023-06-22T09:30:00;31.70;45.70
3298;DHT22;1661;53.572;10.174;2023-06-22T09:32:28;31.80;45.90
3298;DHT22;1661;53.572;10.174;2023-06-22T09:34:55;31.80;46.40
3298;DHT22;1661;53.572;10.174;2023-06-22T09:37:21;31.80;46.00
3298;DHT22;1661;53.572;10.174;2023-06-22T09:39:48;31.70;46.10
3298;DHT22;1661;53.572;10.174;2023-06-22T09:42:15;31.80;45.90
3298;DHT22;1661;53.572;10.174;2023-06-22T09:44:42;31.70;45.60
3298;DHT22;1661;53.572;10.174;2023-06-22T09:47:09;31.50;46.70
3298;DHT22;1661;53.572;10.174;2023-06-22T09:49:37;31.50;46.50
3298;DHT22;1661;53.572;10.174;2023-06-22T09:52:04;31.70;46.70
3298;DHT22;1661;53.572;10.174;2023-06-22T09:54:31;31.90;47.40
3298;DHT22;1661;53.572;10.174;2023-06-22T09:56:58;32.00;47.70
3298;DHT22;1661;53.572;10.174;2023-06-22T09:59:25;32.00;46.10
3298;DHT22;1661;53.572;10.174;2023-06-22T10:01:52;32.00;46.80
3298;DHT22;1661;53.572;10.174;2023-06-22T10:04:18;32.20;47.80
3298;DHT22;1661;53.572;10.174;2023-06-22T10:06:47;32.40;47.30
3298;DHT22;1661;53.572;10.174;2023-06-22T10:09:16;32.70;45.10
3298;DHT22;1661;53.572;10.174;2023-06-22T10:11:43;32.90;46.70
3298;DHT22;1661;53.572;10.174;2023-06-22T10:14:09;33.10;44.40
3298;DHT22;1661;53.572;10.174;2023-06-22T10:16:36;33.30;43.60
3298;DHT22;1661;53.572;10.174;2023-06-22T10:19:03;33.40;43.70
3298;DHT22;1661;53.572;10.174;2023-06-22T10:21:30;33.40;43.90
3298;DHT22;1661;53.572;10.174;2023-06-22T10:23:58;33.30;44.20
3298;DHT22;1661;53.572;10.174;2023-06-22T10:26:31;33.30;44.20
3298;DHT22;1661;53.572;10.174;2023-06-22T10:28:58;33.20;45.00
3298;DHT22;1661;53.572;10.174;2023-06-22T10:31:24;33.30;45.60
3298;DHT22;1661;53.572;10.174;2023-06-22T10:33:52;33.40;45.20
3298;DHT22;1661;53.572;10.174;2023-06-22T10:36:20;33.30;45.70
3298;DHT22;1661;53.572;10.174;2023-06-22T10:38:47;33.20;44.40
3298;DHT22;1661;53.572;10.174;2023-06-22T10:41:15;33.00;45.00
3298;DHT22;1661;53.572;10.174;2023-06-22T10:43:42;32.90;45.70
3298;DHT22;1661;53.572;10.174;2023-06-22T10:46:09;32.80;47.00
3298;DHT22;1661;53.572;10.174;2023-06-22T10:48:36;32.70;46.90
3298;DHT22;1661;53.572;10.174;2023-06-22T10:51:03;32.60;46.10
3298;DHT22;1661;53.572;10.174;2023-06-22T10:53:29;32.50;46.50
3298;DHT22;1661;53.572;10.174;2023-06-22T10:55:56;32.50;47.70
3298;DHT22;1661;53.572;10.174;2023-06-22T10:58:24;32.60;46.20
3298;DHT22;1661;53.572;10.174;2023-06-22T11:00:52;32.20;46.60
3298;DHT22;1661;53.572;10.174;2023-06-22T11:03:18;32.10;47.50
3298;DHT22;1661;53.572;10.174;2023-06-22T11:05:45;32.10;48.20
3298;DHT22;1661;53.572;10.174;2023-06-22T11:08:13;32.00;45.80
3298;DHT22;1661;53.572;10.174;2023-06-22T11:10:40;32.00;48.10
3298;DHT22;1661;53.572;10.174;2023-06-22T11:13:06;32.10;47.60
3298;DHT22;1661;53.572;10.174;2023-06-22T11:15:36;32.10;46.20
3298;DHT22;1661;53.572;10.174;2023-06-22T11:18:03;32.40;48.10
3298;DHT22;1661;53.572;10.174;2023-06-22T11:20:33;32.70;47.50
3298;DHT22;1661;53.572;10.174;2023-06-22T11:23:04;33.00;46.90
3298;DHT22;1661;53.572;10.174;2023-06-22T11:25:30;33.10;46.20
3298;DHT22;1661;53.572;10.174;2023-06-22T11:27:57;33.20;44.40
3298;DHT22;1661;53.572;10.174;2023-06-22T11:30:24;33.00;44.90
3298;DHT22;1661;53.572;10.174;2023-06-22T11:32:52;32.90;46.00
3298;DHT22;1661;53.572;10.174;2023-06-22T11:35:19;32.90;47.30
3298;DHT22;1661;53.572;10.174;2023-06-22T11:37:46;32.90;45.90
3298;DHT22;1661;53.572;10.174;2023-06-22T11:40:13;32.90;45.60
3298;DHT22;1661;53.572;10.174;2023-06-22T11:42:39;32.80;45.40
3298;DHT22;1661;53.572;10.174;2023-06-22T11:45:07;32.70;45.90
3298;DHT22;1661;53.572;10.174;2023-06-22T11:47:34;32.80;46.80
3298;DHT22;1661;53.572;10.174;2023-06-22T11:50:03;32.90;44.90
3298;DHT22;1661;53.572;10.174;2023-06-22T11:52:30;33.00;46.50
3298;DHT22;1661;53.572;10.174;2023-06-22T11:54:57;33.00;47.20
3298;DHT22;1661;53.572;10.174;2023-06-22T11:57:25;32.80;46.70
3298;DHT22;1661;53.572;10.174;2023-06-22T11:59:51;32.80;47.50
3298;DHT22;1661;53.572;10.174;2023-06-22T12:02:18;32.80;47.40
3298;DHT22;1661;53.572;10.174;2023-06-22T12:04:45;32.70;45.70
3298;DHT22;1661;53.572;10.174;2023-06-22T12:07:13;32.50;47.10
3298;DHT22;1661;53.572;10.174;2023-06-22T12:09:40;32.50;46.90
3298;DHT22;1661;53.572;10.174;2023-06-22T12:12:07;32.40;48.30
3298;DHT22;1661;53.572;10.174;2023-06-22T12:14:34;32.30;48.20
3298;DHT22;1661;53.572;10.174;2023-06-22T12:17:01;32.20;48.40
3298;DHT22;1661;53.572;10.174;2023-06-22T12:19:27;32.20;48.30
3298;DHT22;1661;53.572;10.174;2023-06-22T12:21:54;32.30;48.30
3298;DHT22;1661;53.572;10.174;2023-06-22T12:24:22;32.40;50.00
3298;DHT22;1661;53.572;10.174;2023-06-22T12:26:49;32.60;50.00
3298;DHT22;1661;53.572;10.174;2023-06-22T12:29:16;32.80;48.10
3298;DHT22;1661;53.572;10.174;2023-06-22T12:31:43;32.80;46.90
3298;DHT22;1661;53.572;10.174;2023-06-22T12:34:10;32.80;49.90
3298;DHT22;1661;53.572;10.174;2023-06-22T12:36:36;32.90;48.70
3298;DHT22;1661;53.572;10.174;2023-06-22T12:39:03;33.00;47.50
3298;DHT22;1661;53.572;10.174;2023-06-22T12:41:31;33.00;47.70
3298;DHT22;1661;53.572;10.174;2023-06-22T12:43:58;32.90;48.90
3298;DHT22;1661;53.572;10.174;2023-06-22T12:46:25;32.70;48.60
3298;DHT22;1661;53.572;10.174;2023-06-22T12:48:51;32.70;49.10
3298;DHT22;1661;53.572;10.174;2023-06-22T12:51:21;32.70;49.60
3298;DHT22;1661;53.572;10.174;2023-06-22T12:53:48;32.60;47.80
3298;DHT22;1661;53.572;10.174;2023-06-22T12:56:15;32.60;48.80
3298;DHT22;1661;53.572;10.174;2023-06-22T12:58:43;32.60;49.00
3298;DHT22;1661;53.572;10.174;2023-06-22T13:01:10;32.70;48.50
3298;DHT22;1661;53.572;10.174;2023-06-22T13:03:37;32.80;49.60
3298;DHT22;1661;53.572;10.174;2023-06-22T13:06:03;33.00;48.40
3298;DHT22;1661;53.572;10.174;2023-06-22T13:08:30;33.00;49.20
3298;DHT22;1661;53.572;10.174;2023-06-22T13:10:57;33.20;47.10
3298;DHT22;1661;53.572;10.174;2023-06-22T13:13:24;33.40;46.10
3298;DHT22;1661;53.572;10.174;2023-06-22T13:15:53;33.50;46.80
3298;DHT22;1661;53.572;10.174;2023-06-22T13:18:20;33.60;48.00
3298;DHT22;1661;53.572;10.174;2023-06-22T13:20:47;33.60;46.70
3298;DHT22;1661;53.572;10.174;2023-06-22T13:23:14;33.70;48.20
3298;DHT22;1661;53.572;10.174;2023-06-22T13:25:40;33.50;47.10
3298;DHT22;1661;53.572;10.174;2023-06-22T13:28:07;33.30;47.30
3298;DHT22;1661;53.572;10.174;2023-06-22T13:30:35;33.30;48.60
3298;DHT22;1661;53.572;10.174;2023-06-22T13:33:03;33.20;47.90
3298;DHT22;1661;53.572;10.174;2023-06-22T13:35:30;33.20;48.30
3298;DHT22;1661;53.572;10.174;2023-06-22T13:37:57;33.30;47.00
3298;DHT22;1661;53.572;10.174;2023-06-22T13:40:24;33.30;47.90
3298;DHT22;1661;53.572;10.174;2023-06-22T13:42:51;33.20;49.10
3298;DHT22;1661;53.572;10.174;2023-06-22T13:45:17;33.00;48.50
3298;DHT22;1661;53.572;10.174;2023-06-22T13:47:45;32.90;48.30
3298;DHT22;1661;53.572;10.174;2023-06-22T13:50:13;32.90;47.40
3298;DHT22;1661;53.572;10.174;2023-06-22T13:52:40;32.80;46.80
3298;DHT22;1661;53.572;10.174;2023-06-22T13:55:08;32.60;48.60
3298;DHT22;1661;53.572;10.174;2023-06-22T13:57:35;32.60;49.40
3298;DHT22;1661;53.572;10.174;2023-06-22T14:00:03;32.60;49.20
3298;DHT22;1661;53.572;10.174;2023-06-22T14:02:30;32.60;49.60
3298;DHT22;1661;53.572;10.174;2023-06-22T14:04:57;32.50;48.40
3298;DHT22;1661;53.572;10.174;2023-06-22T14:07:25;32.40;50.60
3298;DHT22;1661;53.572;10.174;2023-06-22T14:09:52;32.40;49.80
3298;DHT22;1661;53.572;10.174;2023-06-22T14:12:19;32.30;49.90
3298;DHT22;1661;53.572;10.174;2023-06-22T14:14:46;32.30;49.60
3298;DHT22;1661;53.572;10.174;2023-06-22T14:17:12;32.30;50.40
3298;DHT22;1661;53.572;10.174;2023-06-22T14:19:39;32.30;51.10
3298;DHT22;1661;53.572;10.174;2023-06-22T14:22:06;32.30;50.40
3298;DHT22;1661;53.572;10.174;2023-06-22T14:24:34;32.20;48.20
3298;DHT22;1661;53.572;10.174;2023-06-22T14:27:01;32.10;50.20
3298;DHT22;1661;53.572;10.174;2023-06-22T14:29:28;32.00;50.50
3298;DHT22;1661;53.572;10.174;2023-06-22T14:31:55;32.00;51.20
3298;DHT22;1661;53.572;10.174;2023-06-22T14:34:22;31.90;50.90
3298;DHT22;1661;53.572;10.174;2023-06-22T14:36:49;31.80;50.80
3298;DHT22;1661;53.572;10.174;2023-06-22T14:39:16;31.70;49.50
3298;DHT22;1661;53.572;10.174;2023-06-22T14:41:44;31.40;50.50
3298;DHT22;1661;53.572;10.174;2023-06-22T14:44:11;31.30;55.00
3298;DHT22;1661;53.572;10.174;2023-06-22T14:46:37;31.10;56.00
3298;DHT22;1661;53.572;10.174;2023-06-22T14:49:04;31.10;57.00
3298;DHT22;1661;53.572;10.174;2023-06-22T14:51:31;31.00;56.90
3298;DHT22;1661;53.572;10.174;2023-06-22T14:53:58;30.80;56.70
3298;DHT22;1661;53.572;10.174;2023-06-22T14:56:24;30.70;57.20
3298;DHT22;1661;53.572;10.174;2023-06-22T14:58:52;30.60;57.60
3298;DHT22;1661;53.572;10.174;2023-06-22T15:01:19;30.50;56.90
3298;DHT22;1661;53.572;10.174;2023-06-22T15:03:46;30.40;56.70
3298;DHT22;1661;53.572;10.174;2023-06-22T15:06:13;30.30;56.80
3298;DHT22;1661;53.572;10.174;2023-06-22T15:08:40;30.20;56.20
3298;DHT22;1661;53.572;10.174;2023-06-22T15:11:08;30.20;57.10
3298;DHT22;1661;53.572;10.174;2023-06-22T15:13:37;30.10;56.20
3298;DHT22;1661;53.572;10.174;2023-06-22T15:16:06;30.00;56.60
3298;DHT22;1661;53.572;10.174;2023-06-22T15:18:33;29.90;56.10
3298;DHT22;1661;53.572;10.174;2023-06-22T15:21:01;29.80;56.10
3298;DHT22;1661;53.572;10.174;2023-06-22T15:23:28;29.70;56.50
3298;DHT22;1661;53.572;10.174;2023-06-22T15:25:55;29.60;57.30
3298;DHT22;1661;53.572;10.174;2023-06-22T15:28:22;29.60;57.20
3298;DHT22;1661;53.572;10.174;2023-06-22T15:30:49;29.50;57.40
3298;DHT22;1661;53.572;10.174;2023-06-22T15:33:18;29.50;57.30
3298;DHT22;1661;53.572;10.174;2023-06-22T15:35:45;29.40;56.80
3298;DHT22;1661;53.572;10.174;2023-06-22T15:38:12;29.30;56.10
3298;DHT22;1661;53.572;10.174;2023-06-22T15:40:39;29.10;57.20
3298;DHT22;1661;53.572;10.174;2023-06-22T15:43:10;29.10;57.80
3298;DHT22;1661;53.572;10.174;2023-06-22T15:45:37;29.00;57.40